createdAt,value
2019-05-18T00:00:43.832Z,0.00
2019-05-18T00:01:43.880Z,0.00
2019-05-18T00:02:43.923Z,0.00
2019-05-18T00:03:43.946Z,0.00
2019-05-18T00:04:43.966Z,0.00
2019-05-18T00:05:44.014Z,0.00
2019-05-18T00:06:44.053Z,0.00
2019-05-18T00:07:44.085Z,0.00
2019-05-18T00:08:44.110Z,0.00
2019-05-18T00:09:44.206Z,0.00
2019-05-18T00:10:44.176Z,0.00
2019-05-18T00:11:44.219Z,0.00
2019-05-18T00:12:44.238Z,0.00
2019-05-18T00:13:44.276Z,0.00
2019-05-18T00:14:44.312Z,0.00
2019-05-18T00:15:44.355Z,0.00
2019-05-18T00:16:44.385Z,0.00
2019-05-18T00:17:44.426Z,0.00
2019-05-18T00:18:44.449Z,0.00
2019-05-18T00:19:44.515Z,0.00
2019-05-18T00:20:44.518Z,0.00
2019-05-18T00:21:44.585Z,0.00
2019-05-18T00:22:44.588Z,0.00
2019-05-18T00:23:44.639Z,0.00
2019-05-18T00:24:44.654Z,0.00
2019-05-18T00:25:44.678Z,0.00
2019-05-18T00:26:44.731Z,0.00
2019-05-18T00:27:44.744Z,0.00
2019-05-18T00:28:44.786Z,0.00
2019-05-18T00:29:44.811Z,0.00
2019-05-18T00:30:44.869Z,0.00
2019-05-18T00:31:44.887Z,0.00
2019-05-18T00:32:44.921Z,0.00
2019-05-18T00:33:44.941Z,0.00
2019-05-18T00:34:44.987Z,0.00
2019-05-18T00:35:45.014Z,0.00
2019-05-18T00:36:45.056Z,0.00
2019-05-18T00:37:45.088Z,0.00
2019-05-18T00:38:45.120Z,0.00
2019-05-18T00:39:45.158Z,0.00
2019-05-18T00:40:45.185Z,0.00
2019-05-18T00:41:45.652Z,0.00
2019-05-18T00:42:45.255Z,0.00
2019-05-18T00:43:45.274Z,0.00
2019-05-18T00:44:45.321Z,0.00
2019-05-18T00:45:45.347Z,0.00
2019-05-18T00:46:45.391Z,0.00
2019-05-18T00:47:45.429Z,0.00
2019-05-18T00:48:45.456Z,0.00
2019-05-18T00:49:45.482Z,0.00
2019-05-18T00:50:45.520Z,0.00
2019-05-18T00:51:45.563Z,0.00
2019-05-18T00:52:45.587Z,0.00
2019-05-18T00:53:45.620Z,0.00
2019-05-18T00:54:45.665Z,0.00
2019-05-18T00:55:45.682Z,0.00
2019-05-18T00:56:45.714Z,0.00
2019-05-18T00:57:45.758Z,0.00
2019-05-18T00:58:45.793Z,0.00
2019-05-18T00:59:45.822Z,0.00
2019-05-18T01:00:45.849Z,0.00
2019-05-18T01:01:45.892Z,0.00
2019-05-18T01:02:45.914Z,0.00
2019-05-18T01:03:45.956Z,0.00
2019-05-18T01:04:45.985Z,0.00
2019-05-18T01:05:46.021Z,0.00
2019-05-18T01:06:46.065Z,0.00
2019-05-18T01:07:46.090Z,0.00
2019-05-18T01:08:46.119Z,0.00
2019-05-18T01:09:46.154Z,0.00
2019-05-18T01:10:46.208Z,0.00
2019-05-18T01:11:46.237Z,0.00
2019-05-18T01:12:46.249Z,0.00
2019-05-18T01:13:46.287Z,0.00
2019-05-18T01:14:46.316Z,0.00
2019-05-18T01:15:46.342Z,0.00
2019-05-18T01:16:46.390Z,0.00
2019-05-18T01:17:56.920Z,0.00
2019-05-18T01:18:46.460Z,0.00
2019-05-18T01:19:46.475Z,0.00
2019-05-18T01:20:46.521Z,0.00
2019-05-18T01:21:46.558Z,0.00
2019-05-18T01:22:46.585Z,0.00
2019-05-18T01:23:46.621Z,0.00
2019-05-18T01:24:46.651Z,0.00
2019-05-18T01:25:46.674Z,0.00
2019-05-18T01:26:46.725Z,0.00
2019-05-18T01:27:46.744Z,0.00
2019-05-18T01:28:46.783Z,0.00
2019-05-18T01:29:46.820Z,0.00
2019-05-18T01:30:46.845Z,0.00
2019-05-18T01:31:46.884Z,0.00
2019-05-18T01:32:46.915Z,0.00
2019-05-18T01:33:46.948Z,0.00
2019-05-18T01:34:46.985Z,0.00
2019-05-18T01:35:47.012Z,0.00
2019-05-18T01:36:47.052Z,0.00
2019-05-18T01:37:47.082Z,0.00
2019-05-18T01:38:47.114Z,0.00
2019-05-18T01:39:47.148Z,0.00
2019-05-18T01:40:47.222Z,0.00
2019-05-18T01:41:47.217Z,0.00
2019-05-18T01:42:47.253Z,0.00
2019-05-18T01:43:47.269Z,0.00
2019-05-18T01:44:47.308Z,0.00
2019-05-18T01:45:47.340Z,0.00
2019-05-18T01:46:47.383Z,0.00
2019-05-18T01:47:47.401Z,0.00
2019-05-18T01:48:47.437Z,0.00
2019-05-18T01:49:47.483Z,0.00
2019-05-18T01:50:47.538Z,0.00
2019-05-18T01:51:47.547Z,0.00
2019-05-18T01:52:47.578Z,0.00
2019-05-18T01:53:47.611Z,0.00
2019-05-18T01:54:47.644Z,0.00
2019-05-18T01:55:47.676Z,0.00
2019-05-18T01:56:47.710Z,0.00
2019-05-18T01:57:47.742Z,0.00
2019-05-18T01:58:47.779Z,0.00
2019-05-18T01:59:47.809Z,0.00
2019-05-18T02:00:47.838Z,0.00
2019-05-18T02:01:47.878Z,0.00
2019-05-18T02:02:47.914Z,0.00
2019-05-18T02:03:47.930Z,0.00
2019-05-18T02:04:47.966Z,0.00
2019-05-18T02:05:47.997Z,0.00
2019-05-18T02:06:48.033Z,0.00
2019-05-18T02:07:48.064Z,0.00
2019-05-18T02:08:48.103Z,0.00
2019-05-18T02:09:48.132Z,0.00
2019-05-18T02:10:48.173Z,0.00
2019-05-18T02:11:48.204Z,0.00
2019-05-18T02:12:48.237Z,0.00
2019-05-18T02:13:48.269Z,0.00
2019-05-18T02:14:48.303Z,0.00
2019-05-18T02:15:48.321Z,0.00
2019-05-18T02:16:48.370Z,0.00
2019-05-18T02:17:48.397Z,0.00
2019-05-18T02:18:48.437Z,0.00
2019-05-18T02:19:48.464Z,0.00
2019-05-18T02:20:48.503Z,0.00
2019-05-18T02:21:48.537Z,0.00
2019-05-18T02:22:48.571Z,0.00
2019-05-18T02:23:48.606Z,0.00
2019-05-18T02:24:48.633Z,0.00
2019-05-18T02:25:48.665Z,0.00
2019-05-18T02:26:48.691Z,0.00
2019-05-18T02:27:48.717Z,0.00
2019-05-18T02:28:48.762Z,0.00
2019-05-18T02:29:48.798Z,0.00
2019-05-18T02:30:48.831Z,0.00
2019-05-18T02:31:48.860Z,0.00
2019-05-18T02:32:48.891Z,0.00
2019-05-18T02:33:48.924Z,0.00
2019-05-18T02:34:48.943Z,0.00
2019-05-18T02:35:49.004Z,0.00
2019-05-18T02:36:49.021Z,0.00
2019-05-18T02:37:49.059Z,0.00
2019-05-18T02:38:49.103Z,0.00
2019-05-18T02:39:49.122Z,0.00
2019-05-18T02:40:49.163Z,0.00
2019-05-18T02:41:49.196Z,0.00
2019-05-18T02:42:49.209Z,0.00
2019-05-18T02:43:49.254Z,0.00
2019-05-18T02:44:49.272Z,0.00
2019-05-18T02:45:49.311Z,0.00
2019-05-18T02:46:49.340Z,0.00
2019-05-18T02:47:49.378Z,0.00
2019-05-18T02:48:50.795Z,0.00
2019-05-18T02:49:49.449Z,0.00
2019-05-18T02:50:49.483Z,0.00
2019-05-18T02:51:49.514Z,0.00
2019-05-18T02:52:49.546Z,0.00
2019-05-18T02:53:49.608Z,0.00
2019-05-18T02:54:49.632Z,0.00
2019-05-18T02:55:49.645Z,0.00
2019-05-18T02:56:49.668Z,0.00
2019-05-18T02:57:49.722Z,0.00
2019-05-18T02:58:49.744Z,0.00
2019-05-18T02:59:49.777Z,0.00
2019-05-18T03:00:49.815Z,0.00
2019-05-18T03:01:49.841Z,0.00
2019-05-18T03:02:49.909Z,0.00
2019-05-18T03:03:49.896Z,0.00
2019-05-18T03:04:49.943Z,0.00
2019-05-18T03:05:49.973Z,0.00
2019-05-18T03:06:50.004Z,0.00
2019-05-18T03:07:50.046Z,0.00
2019-05-18T03:08:50.067Z,0.00
2019-05-18T03:09:50.101Z,0.00
2019-05-18T03:10:50.134Z,0.00
2019-05-18T03:11:50.168Z,0.00
2019-05-18T03:12:50.196Z,0.00
2019-05-18T03:13:50.229Z,0.00
2019-05-18T03:14:50.264Z,0.00
2019-05-18T03:15:50.294Z,0.00
2019-05-18T03:16:50.324Z,0.00
2019-05-18T03:17:50.363Z,0.00
2019-05-18T03:19:06.922Z,0.00
2019-05-18T03:19:50.427Z,0.00
2019-05-18T03:20:50.470Z,0.00
2019-05-18T03:21:50.482Z,0.00
2019-05-18T03:22:50.524Z,0.00
2019-05-18T03:23:50.561Z,0.00
2019-05-18T03:24:50.578Z,0.00
2019-05-18T03:25:50.629Z,0.00
2019-05-18T03:26:50.652Z,0.00
2019-05-18T03:27:50.680Z,0.00
2019-05-18T03:28:50.719Z,0.00
2019-05-18T03:29:50.751Z,0.00
2019-05-18T03:30:50.770Z,0.00
2019-05-18T03:31:50.816Z,0.00
2019-05-18T03:32:50.852Z,0.00
2019-05-18T03:33:50.891Z,0.00
2019-05-18T03:34:50.913Z,0.00
2019-05-18T03:35:50.946Z,0.00
2019-05-18T03:36:50.975Z,0.00
2019-05-18T03:37:51.019Z,0.00
2019-05-18T03:38:51.045Z,0.00
2019-05-18T03:39:51.096Z,0.00
2019-05-18T03:40:51.097Z,0.00
2019-05-18T03:41:51.144Z,0.00
2019-05-18T03:42:51.172Z,0.00
2019-05-18T03:43:51.207Z,0.00
2019-05-18T03:44:51.230Z,0.00
2019-05-18T03:45:51.262Z,0.00
2019-05-18T03:46:51.294Z,0.00
2019-05-18T03:47:51.334Z,0.00
2019-05-18T03:48:51.368Z,0.00
2019-05-18T03:49:51.411Z,0.00
2019-05-18T03:50:51.444Z,0.00
2019-05-18T03:51:51.467Z,0.00
2019-05-18T03:52:51.498Z,0.00
2019-05-18T03:53:51.531Z,5.63
2019-05-18T03:54:51.566Z,5.63
2019-05-18T03:55:51.598Z,5.63
2019-05-18T03:56:51.626Z,5.63
2019-05-18T03:57:51.665Z,5.63
2019-05-18T03:58:51.695Z,5.63
2019-05-18T03:59:51.745Z,5.63
2019-05-18T04:00:51.758Z,5.63
2019-05-18T04:01:51.783Z,5.63
2019-05-18T04:02:51.835Z,5.63
2019-05-18T04:03:51.858Z,5.63
2019-05-18T04:04:51.880Z,5.63
2019-05-18T04:05:51.920Z,5.63
2019-05-18T04:06:51.946Z,5.63
2019-05-18T04:07:51.998Z,5.63
2019-05-18T04:08:52.014Z,5.63
2019-05-18T04:09:52.050Z,5.63
2019-05-18T04:10:52.067Z,5.63
2019-05-18T04:11:52.115Z,5.63
2019-05-18T04:12:52.142Z,5.63
2019-05-18T04:13:52.179Z,5.63
2019-05-18T04:14:52.212Z,5.63
2019-05-18T04:15:52.244Z,5.63
2019-05-18T04:16:52.273Z,5.63
2019-05-18T04:17:52.313Z,5.63
2019-05-18T04:18:52.343Z,5.63
2019-05-18T04:19:52.397Z,5.63
2019-05-18T04:20:52.406Z,5.63
2019-05-18T04:21:52.440Z,5.63
2019-05-18T04:22:52.471Z,5.63
2019-05-18T04:23:52.529Z,5.63
2019-05-18T04:24:52.550Z,5.63
2019-05-18T04:25:52.566Z,5.63
2019-05-18T04:26:52.588Z,5.63
2019-05-18T04:27:52.643Z,5.63
2019-05-18T04:28:52.666Z,5.63
2019-05-18T04:29:52.697Z,5.63
2019-05-18T04:30:52.729Z,5.63
2019-05-18T04:31:52.763Z,5.63
2019-05-18T04:32:52.809Z,5.63
2019-05-18T04:33:52.825Z,5.63
2019-05-18T04:34:52.862Z,5.63
2019-05-18T04:35:52.891Z,5.63
2019-05-18T04:36:52.924Z,5.63
2019-05-18T04:37:52.960Z,5.63
2019-05-18T04:38:52.994Z,5.63
2019-05-18T04:39:53.020Z,5.63
2019-05-18T04:40:53.058Z,5.63
2019-05-18T04:41:53.086Z,5.63
2019-05-18T04:42:53.107Z,5.63
2019-05-18T04:43:53.162Z,5.63
2019-05-18T04:44:53.176Z,5.63
2019-05-18T04:45:53.248Z,5.63
2019-05-18T04:46:53.249Z,5.63
2019-05-18T04:47:53.283Z,5.63
2019-05-18T04:48:53.315Z,5.63
2019-05-18T04:50:04.599Z,5.63
2019-05-18T04:50:53.389Z,5.63
2019-05-18T04:51:53.418Z,5.63
2019-05-18T04:52:53.447Z,5.63
2019-05-18T04:53:53.481Z,5.63
2019-05-18T04:54:53.514Z,5.63
2019-05-18T04:55:53.531Z,5.63
2019-05-18T04:56:53.584Z,5.63
2019-05-18T04:57:53.614Z,5.63
2019-05-18T04:58:53.653Z,5.63
2019-05-18T04:59:53.674Z,5.63
2019-05-18T05:00:53.711Z,5.63
2019-05-18T05:01:53.750Z,5.63
2019-05-18T05:02:53.768Z,5.63
2019-05-18T05:03:53.815Z,5.63
2019-05-18T05:04:56.601Z,5.63
2019-05-18T05:05:53.873Z,5.63
2019-05-18T05:06:53.904Z,5.63
2019-05-18T05:07:53.936Z,5.63
2019-05-18T05:08:53.968Z,11.25
2019-05-18T05:09:53.992Z,11.25
2019-05-18T05:10:54.033Z,11.25
2019-05-18T05:11:54.058Z,11.25
2019-05-18T05:12:54.097Z,11.25
2019-05-18T05:13:54.138Z,11.25
2019-05-18T05:14:54.163Z,11.25
2019-05-18T05:15:54.199Z,11.25
2019-05-18T05:16:54.226Z,11.25
2019-05-18T05:17:54.273Z,11.25
2019-05-18T05:18:54.302Z,11.25
2019-05-18T05:19:54.333Z,11.25
2019-05-18T05:20:54.351Z,11.25
2019-05-18T05:21:54.387Z,11.25
2019-05-18T05:22:54.427Z,11.25
2019-05-18T05:23:54.458Z,11.25
2019-05-18T05:24:54.495Z,11.25
2019-05-18T05:25:54.527Z,11.25
2019-05-18T05:26:54.558Z,11.25
2019-05-18T05:27:54.594Z,11.25
2019-05-18T05:28:54.623Z,11.25
2019-05-18T05:29:54.697Z,11.25
2019-05-18T05:30:54.703Z,11.25
2019-05-18T05:31:54.711Z,11.25
2019-05-18T05:32:54.779Z,11.25
2019-05-18T05:33:54.785Z,11.25
2019-05-18T05:34:54.811Z,11.25
2019-05-18T05:35:54.870Z,11.25
2019-05-18T05:36:54.886Z,11.25
2019-05-18T05:37:54.928Z,11.25
2019-05-18T05:38:54.953Z,11.25
2019-05-18T05:39:54.978Z,11.25
2019-05-18T05:40:55.018Z,11.25
2019-05-18T05:41:55.059Z,11.25
2019-05-18T05:42:55.081Z,11.25
2019-05-18T05:43:55.115Z,11.25
2019-05-18T05:44:55.147Z,11.25
2019-05-18T05:45:55.181Z,11.25
2019-05-18T05:46:55.217Z,11.25
2019-05-18T05:47:55.250Z,11.25
2019-05-18T05:48:55.283Z,11.25
2019-05-18T05:49:55.319Z,11.25
2019-05-18T05:50:55.340Z,11.25
2019-05-18T05:51:55.384Z,11.25
2019-05-18T05:52:55.414Z,11.25
2019-05-18T05:53:55.448Z,11.25
2019-05-18T05:54:55.485Z,11.25
2019-05-18T05:55:55.506Z,11.25
2019-05-18T05:56:55.548Z,11.25
2019-05-18T05:57:55.582Z,11.25
2019-05-18T05:58:55.611Z,11.25
2019-05-18T05:59:55.644Z,11.25
2019-05-18T06:00:55.675Z,11.25
2019-05-18T06:01:55.709Z,11.25
2019-05-18T06:02:55.751Z,11.25
2019-05-18T06:03:55.778Z,11.25
2019-05-18T06:04:55.812Z,11.25
2019-05-18T06:05:55.841Z,11.25
2019-05-18T06:06:55.878Z,11.25
2019-05-18T06:07:55.906Z,11.25
2019-05-18T06:08:55.941Z,11.25
2019-05-18T06:09:55.971Z,11.25
2019-05-18T06:10:56.000Z,11.25
2019-05-18T06:11:56.034Z,11.25
2019-05-18T06:12:56.072Z,11.25
2019-05-18T06:13:56.136Z,11.25
2019-05-18T06:14:56.131Z,11.25
2019-05-18T06:15:56.175Z,11.25
2019-05-18T06:16:56.209Z,11.25
2019-05-18T06:17:56.229Z,11.25
2019-05-18T06:18:56.270Z,11.25
2019-05-18T06:19:56.302Z,11.25
2019-05-18T06:20:56.350Z,11.25
2019-05-18T06:21:56.373Z,11.25
2019-05-18T06:22:56.403Z,11.25
2019-05-18T06:23:56.429Z,11.25
2019-05-18T06:24:56.481Z,11.25
2019-05-18T06:25:56.509Z,11.25
2019-05-18T06:26:56.544Z,11.25
2019-05-18T06:27:56.573Z,11.25
2019-05-18T06:28:56.609Z,11.25
2019-05-18T06:29:56.646Z,11.25
2019-05-18T06:30:56.679Z,11.25
2019-05-18T06:31:56.701Z,11.25
2019-05-18T06:32:56.737Z,11.25
2019-05-18T06:33:56.769Z,11.25
2019-05-18T06:34:56.814Z,11.25
2019-05-18T06:35:56.842Z,11.25
2019-05-18T06:36:56.920Z,11.25
2019-05-18T06:37:56.933Z,11.25
2019-05-18T06:38:57.001Z,11.25
2019-05-18T06:39:57.016Z,11.25
2019-05-18T06:40:57.034Z,11.25
2019-05-18T06:41:57.078Z,11.25
2019-05-18T06:42:57.081Z,11.25
2019-05-18T06:43:58.458Z,16.88
2019-05-18T06:44:57.146Z,16.88
2019-05-18T06:45:57.184Z,16.88
2019-05-18T06:46:57.214Z,16.88
2019-05-18T06:47:57.242Z,16.88
2019-05-18T06:48:57.284Z,16.88
2019-05-18T06:49:57.321Z,16.88
2019-05-18T06:51:06.918Z,16.88
2019-05-18T06:51:57.383Z,16.88
2019-05-18T06:52:57.415Z,16.88
2019-05-18T06:53:57.441Z,16.88
2019-05-18T06:54:57.476Z,16.88
2019-05-18T06:55:57.521Z,16.88
2019-05-18T06:56:57.554Z,16.88
2019-05-18T06:57:57.581Z,16.88
2019-05-18T06:58:57.630Z,16.88
2019-05-18T06:59:57.650Z,16.88
2019-05-18T07:00:57.683Z,16.88
2019-05-18T07:01:57.719Z,16.88
2019-05-18T07:02:57.755Z,16.88
2019-05-18T07:03:57.787Z,16.88
2019-05-18T07:04:57.811Z,16.88
2019-05-18T07:05:57.851Z,16.88
2019-05-18T07:06:57.877Z,16.88
2019-05-18T07:07:57.921Z,16.88
2019-05-18T07:08:57.959Z,16.88
2019-05-18T07:09:57.994Z,16.88
2019-05-18T07:10:58.019Z,16.88
2019-05-18T07:11:58.058Z,16.88
2019-05-18T07:12:58.089Z,16.88
2019-05-18T07:13:58.122Z,16.88
2019-05-18T07:15:00.331Z,16.88
2019-05-18T07:15:58.201Z,16.88
2019-05-18T07:16:58.228Z,16.88
2019-05-18T07:17:58.268Z,16.88
2019-05-18T07:18:58.301Z,16.88
2019-05-18T07:19:58.331Z,16.88
2019-05-18T07:20:58.364Z,16.88
2019-05-18T07:21:58.402Z,16.88
2019-05-18T07:22:58.433Z,16.88
2019-05-18T07:23:58.470Z,16.88
2019-05-18T07:24:58.502Z,16.88
2019-05-18T07:25:58.536Z,16.88
2019-05-18T07:26:58.575Z,16.88
2019-05-18T07:27:58.603Z,16.88
2019-05-18T07:28:58.636Z,16.88
2019-05-18T07:29:58.677Z,16.88
2019-05-18T07:30:58.705Z,16.88
2019-05-18T07:31:58.735Z,16.88
2019-05-18T07:32:58.773Z,16.88
2019-05-18T07:33:58.815Z,16.88
2019-05-18T07:34:58.886Z,16.88
2019-05-18T07:35:58.883Z,16.88
2019-05-18T07:36:58.899Z,16.88
2019-05-18T07:37:58.951Z,16.88
2019-05-18T07:38:58.982Z,16.88
2019-05-18T07:39:59.018Z,16.88
2019-05-18T07:40:59.037Z,16.88
2019-05-18T07:41:59.087Z,16.88
2019-05-18T07:42:59.118Z,16.88
2019-05-18T07:43:59.157Z,16.88
2019-05-18T07:44:59.188Z,16.88
2019-05-18T07:45:59.237Z,16.88
2019-05-18T07:46:59.247Z,16.88
2019-05-18T07:47:59.294Z,16.88
2019-05-18T07:48:59.330Z,16.88
2019-05-18T07:49:59.356Z,16.88
2019-05-18T07:50:59.389Z,16.88
2019-05-18T07:51:59.440Z,16.88
2019-05-18T07:52:59.465Z,16.88
2019-05-18T07:53:59.499Z,16.88
2019-05-18T07:54:59.545Z,16.88
2019-05-18T07:55:59.574Z,16.88
2019-05-18T07:56:59.599Z,22.50
2019-05-18T07:57:59.644Z,22.50
2019-05-18T07:58:59.681Z,22.50
2019-05-18T07:59:59.715Z,22.50
2019-05-18T08:00:59.756Z,22.50
2019-05-18T08:01:59.785Z,22.50
2019-05-18T08:02:59.817Z,22.50
2019-05-18T08:03:59.854Z,22.50
2019-05-18T08:04:59.911Z,22.50
2019-05-18T08:05:59.931Z,22.50
2019-05-18T08:06:59.967Z,22.50
2019-05-18T08:07:59.994Z,22.50
2019-05-18T08:09:00.032Z,22.50
2019-05-18T08:10:00.067Z,22.50
2019-05-18T08:11:00.101Z,22.50
2019-05-18T08:12:00.128Z,22.50
2019-05-18T08:13:00.174Z,22.50
2019-05-18T08:14:00.209Z,22.50
2019-05-18T08:15:00.245Z,22.50
2019-05-18T08:16:00.282Z,22.50
2019-05-18T08:17:00.313Z,22.50
2019-05-18T08:18:00.350Z,22.50
2019-05-18T08:19:00.379Z,22.50
2019-05-18T08:20:00.427Z,22.50
2019-05-18T08:21:00.458Z,22.50
2019-05-18T08:22:00.490Z,22.50
2019-05-18T08:23:00.528Z,22.50
2019-05-18T08:24:00.564Z,22.50
2019-05-18T08:25:00.604Z,22.50
2019-05-18T08:26:00.638Z,22.50
2019-05-18T08:27:02.333Z,22.50
2019-05-18T08:28:00.713Z,22.50
2019-05-18T08:29:00.766Z,22.50
2019-05-18T08:30:00.780Z,22.50
2019-05-18T08:31:00.803Z,22.50
2019-05-18T08:32:00.846Z,22.50
2019-05-18T08:33:00.889Z,22.50
2019-05-18T08:34:00.914Z,22.50
2019-05-18T08:35:00.966Z,22.50
2019-05-18T08:36:01.002Z,22.50
2019-05-18T08:37:01.014Z,22.50
2019-05-18T08:38:01.068Z,22.50
2019-05-18T08:39:01.109Z,22.50
2019-05-18T08:40:01.135Z,22.50
2019-05-18T08:41:01.162Z,22.50
2019-05-18T08:42:01.203Z,22.50
2019-05-18T08:43:01.248Z,22.50
2019-05-18T08:44:01.270Z,22.50
2019-05-18T08:45:01.322Z,22.50
2019-05-18T08:46:01.374Z,22.50
2019-05-18T08:47:01.500Z,22.50
2019-05-18T08:48:01.461Z,22.50
2019-05-18T08:49:01.505Z,22.50
2019-05-18T08:50:01.527Z,22.50
2019-05-18T08:51:01.550Z,22.50
2019-05-18T08:52:08.448Z,22.50
2019-05-18T08:53:01.600Z,22.50
2019-05-18T08:54:01.638Z,22.50
2019-05-18T08:55:01.672Z,22.50
2019-05-18T08:56:01.709Z,22.50
2019-05-18T08:57:01.746Z,22.50
2019-05-18T08:58:01.803Z,28.13
2019-05-18T08:59:01.818Z,28.13
2019-05-18T09:00:01.908Z,28.13
2019-05-18T09:01:01.908Z,28.13
2019-05-18T09:02:01.937Z,28.13
2019-05-18T09:03:01.970Z,28.13
2019-05-18T09:04:02.016Z,28.13
2019-05-18T09:05:04.825Z,28.13
2019-05-18T09:06:02.091Z,28.13
2019-05-18T09:07:02.132Z,28.13
2019-05-18T09:08:02.145Z,28.13
2019-05-18T09:09:02.186Z,28.13
2019-05-18T09:10:02.231Z,28.13
2019-05-18T09:11:02.278Z,28.13
2019-05-18T09:12:02.398Z,28.13
2019-05-18T09:13:02.386Z,28.13
2019-05-18T09:14:02.368Z,28.13
2019-05-18T09:15:02.425Z,28.13
2019-05-18T09:16:02.457Z,28.13
2019-05-18T09:17:02.486Z,28.13
2019-05-18T09:18:04.837Z,28.13
2019-05-18T09:19:02.586Z,28.13
2019-05-18T09:20:02.589Z,28.13
2019-05-18T09:21:02.638Z,28.13
2019-05-18T09:22:02.669Z,28.13
2019-05-18T09:23:02.692Z,28.13
2019-05-18T09:24:02.738Z,28.13
2019-05-18T09:25:02.819Z,28.13
2019-05-18T09:26:02.827Z,28.13
2019-05-18T09:27:02.850Z,28.13
2019-05-18T09:28:02.892Z,28.13
2019-05-18T09:29:02.992Z,28.13
2019-05-18T09:30:03.103Z,28.13
2019-05-18T09:31:03.045Z,28.13
2019-05-18T09:32:03.041Z,28.13
2019-05-18T09:33:03.076Z,28.13
2019-05-18T09:34:03.130Z,28.13
2019-05-18T09:35:03.193Z,28.13
2019-05-18T09:36:03.201Z,28.13
2019-05-18T09:37:03.239Z,28.13
2019-05-18T09:38:03.279Z,28.13
2019-05-18T09:39:03.318Z,28.13
2019-05-18T09:40:03.350Z,28.13
2019-05-18T09:41:03.386Z,33.75
2019-05-18T09:42:03.427Z,33.75
2019-05-18T09:43:03.454Z,33.75
2019-05-18T09:44:03.488Z,33.75
2019-05-18T09:45:03.531Z,33.75
2019-05-18T09:46:03.570Z,33.75
2019-05-18T09:47:03.624Z,33.75
2019-05-18T09:48:03.716Z,33.75
2019-05-18T09:49:03.677Z,33.75
2019-05-18T09:50:03.717Z,33.75
2019-05-18T09:51:03.772Z,33.75
2019-05-18T09:52:03.997Z,33.75
2019-05-18T09:53:04.174Z,33.75
2019-05-18T09:54:03.866Z,33.75
2019-05-18T09:55:03.922Z,33.75
2019-05-18T09:56:03.953Z,33.75
2019-05-18T09:57:03.982Z,33.75
2019-05-18T09:58:04.024Z,33.75
2019-05-18T09:59:04.060Z,33.75
2019-05-18T10:00:04.100Z,33.75
2019-05-18T10:01:04.156Z,33.75
2019-05-18T10:02:04.172Z,33.75
2019-05-18T10:03:04.214Z,33.75
2019-05-18T10:04:04.259Z,33.75
2019-05-18T10:05:04.276Z,33.75
2019-05-18T10:06:04.361Z,33.75
2019-05-18T10:07:04.366Z,33.75
2019-05-18T10:08:04.415Z,33.75
2019-05-18T10:09:04.445Z,39.38
2019-05-18T10:10:04.483Z,39.38
2019-05-18T10:11:04.536Z,39.38
2019-05-18T10:12:04.566Z,39.38
2019-05-18T10:13:04.607Z,39.38
2019-05-18T10:14:04.668Z,39.38
2019-05-18T10:15:04.694Z,39.38
2019-05-18T10:16:04.715Z,45.00
2019-05-18T10:17:04.753Z,39.38
2019-05-18T10:18:04.788Z,39.38
2019-05-18T10:19:04.831Z,45.00
2019-05-18T10:20:04.868Z,45.00
2019-05-18T10:21:04.923Z,45.00
2019-05-18T10:22:04.942Z,45.00
2019-05-18T10:23:13.265Z,45.00
2019-05-18T10:24:05.024Z,45.00
2019-05-18T10:25:05.072Z,50.63
2019-05-18T10:26:05.101Z,45.00
2019-05-18T10:27:05.136Z,45.00
2019-05-18T10:28:05.182Z,45.00
2019-05-18T10:29:05.214Z,45.00
2019-05-18T10:30:05.260Z,45.00
2019-05-18T10:31:05.308Z,45.00
2019-05-18T10:32:05.337Z,50.63
2019-05-18T10:33:05.378Z,50.63
2019-05-18T10:34:05.415Z,50.63
2019-05-18T10:35:05.462Z,50.63
2019-05-18T10:36:05.489Z,50.63
2019-05-18T10:37:05.540Z,50.63
2019-05-18T10:38:05.585Z,50.63
2019-05-18T10:39:05.609Z,56.25
2019-05-18T10:40:05.663Z,50.63
2019-05-18T10:41:05.695Z,50.63
2019-05-18T10:42:05.735Z,56.25
2019-05-18T10:43:05.782Z,50.63
2019-05-18T10:44:05.804Z,50.63
2019-05-18T10:45:05.856Z,50.63
2019-05-18T10:46:05.898Z,45.00
2019-05-18T10:47:05.937Z,50.63
2019-05-18T10:48:05.983Z,50.63
2019-05-18T10:49:06.005Z,50.63
2019-05-18T10:50:06.041Z,45.00
2019-05-18T10:51:06.097Z,50.63
2019-05-18T10:52:06.130Z,50.63
2019-05-18T10:53:06.190Z,50.63
2019-05-18T10:54:06.205Z,56.25
2019-05-18T10:55:06.253Z,56.25
2019-05-18T10:56:06.289Z,50.63
2019-05-18T10:57:06.373Z,50.63
2019-05-18T10:58:06.377Z,56.25
2019-05-18T10:59:06.406Z,50.63
2019-05-18T11:00:06.475Z,56.25
2019-05-18T11:01:06.483Z,50.63
2019-05-18T11:02:06.528Z,50.63
2019-05-18T11:03:06.567Z,50.63
2019-05-18T11:04:06.603Z,45.00
2019-05-18T11:05:06.646Z,45.00
2019-05-18T11:06:06.691Z,45.00
2019-05-18T11:07:06.725Z,45.00
2019-05-18T11:08:06.769Z,50.63
2019-05-18T11:09:06.803Z,56.25
2019-05-18T11:10:06.837Z,56.25
2019-05-18T11:11:06.888Z,56.25
2019-05-18T11:12:06.951Z,56.25
2019-05-18T11:13:06.959Z,56.25
2019-05-18T11:14:07.013Z,50.63
2019-05-18T11:15:07.047Z,45.00
2019-05-18T11:16:07.088Z,45.00
2019-05-18T11:17:07.123Z,50.63
2019-05-18T11:18:07.208Z,50.63
2019-05-18T11:19:07.203Z,56.25
2019-05-18T11:20:07.244Z,56.25
2019-05-18T11:21:07.282Z,61.88
2019-05-18T11:22:07.321Z,56.25
2019-05-18T11:23:07.363Z,45.00
2019-05-18T11:24:07.403Z,45.00
2019-05-18T11:25:07.445Z,39.38
2019-05-18T11:26:07.489Z,39.38
2019-05-18T11:27:07.525Z,45.00
2019-05-18T11:28:07.561Z,39.38
2019-05-18T11:29:07.604Z,45.00
2019-05-18T11:30:07.991Z,45.00
2019-05-18T11:31:07.675Z,50.63
2019-05-18T11:32:07.728Z,56.25
2019-05-18T11:33:07.752Z,56.25
2019-05-18T11:34:07.825Z,50.63
2019-05-18T11:35:07.845Z,50.63
2019-05-18T11:36:07.881Z,50.63
2019-05-18T11:37:07.925Z,56.25
2019-05-18T11:38:07.963Z,50.63
2019-05-18T11:39:08.007Z,45.00
2019-05-18T11:40:08.042Z,45.00
2019-05-18T11:41:08.079Z,45.00
2019-05-18T11:42:08.119Z,45.00
2019-05-18T11:43:08.160Z,45.00
2019-05-18T11:44:10.806Z,50.63
2019-05-18T11:45:08.266Z,50.63
2019-05-18T11:46:08.281Z,50.63
2019-05-18T11:47:08.313Z,50.63
2019-05-18T11:48:08.371Z,50.63
2019-05-18T11:49:08.392Z,56.25
2019-05-18T11:50:08.465Z,56.25
2019-05-18T11:51:08.486Z,50.63
2019-05-18T11:52:08.520Z,50.63
2019-05-18T11:53:08.555Z,50.63
2019-05-18T11:54:08.618Z,45.00
2019-05-18T11:55:08.632Z,45.00
2019-05-18T11:56:08.689Z,45.00
2019-05-18T11:57:08.717Z,45.00
2019-05-18T11:58:08.763Z,50.63
2019-05-18T11:59:08.802Z,50.63
2019-05-18T12:00:08.848Z,56.25
2019-05-18T12:01:08.889Z,61.88
2019-05-18T12:02:08.927Z,56.25
2019-05-18T12:03:08.974Z,50.63
2019-05-18T12:04:08.998Z,45.00
2019-05-18T12:05:09.031Z,45.00
2019-05-18T12:06:09.081Z,39.38
2019-05-18T12:07:09.113Z,33.75
2019-05-18T12:08:09.161Z,33.75
2019-05-18T12:09:09.216Z,33.75
2019-05-18T12:10:09.247Z,39.38
2019-05-18T12:11:09.282Z,39.38
2019-05-18T12:12:09.327Z,39.38
2019-05-18T12:13:09.347Z,45.00
2019-05-18T12:14:09.407Z,50.63
2019-05-18T12:15:09.430Z,50.63
2019-05-18T12:16:09.483Z,50.63
2019-05-18T12:17:09.509Z,45.00
2019-05-18T12:18:09.569Z,45.00
2019-05-18T12:19:09.631Z,39.38
2019-05-18T12:20:09.654Z,39.38
2019-05-18T12:21:09.685Z,39.38
2019-05-18T12:22:09.721Z,39.38
2019-05-18T12:23:09.774Z,45.00
2019-05-18T12:24:15.538Z,45.00
2019-05-18T12:25:09.841Z,50.63
2019-05-18T12:26:09.877Z,56.25
2019-05-18T12:27:09.923Z,56.25
2019-05-18T12:28:09.968Z,50.63
2019-05-18T12:29:10.014Z,50.63
2019-05-18T12:30:10.066Z,50.63
2019-05-18T12:31:10.085Z,50.63
2019-05-18T12:32:10.128Z,50.63
2019-05-18T12:33:10.156Z,50.63
2019-05-18T12:34:10.204Z,45.00
2019-05-18T12:35:10.243Z,45.00
2019-05-18T12:36:10.279Z,50.63
2019-05-18T12:37:10.320Z,50.63
2019-05-18T12:38:10.367Z,50.63
2019-05-18T12:39:10.420Z,50.63
2019-05-18T12:40:10.447Z,50.63
2019-05-18T12:41:10.481Z,50.63
2019-05-18T12:42:10.519Z,50.63
2019-05-18T12:43:10.546Z,56.25
2019-05-18T12:44:10.600Z,56.25
2019-05-18T12:45:10.640Z,56.25
2019-05-18T12:46:10.686Z,50.63
2019-05-18T12:47:14.172Z,50.63
2019-05-18T12:48:10.761Z,45.00
2019-05-18T12:49:10.803Z,45.00
2019-05-18T12:50:10.844Z,50.63
2019-05-18T12:51:10.882Z,50.63
2019-05-18T12:52:10.923Z,50.63
2019-05-18T12:53:10.953Z,50.63
2019-05-18T12:54:10.999Z,50.63
2019-05-18T12:55:11.041Z,50.63
2019-05-18T12:56:11.080Z,50.63
2019-05-18T12:57:11.106Z,50.63
2019-05-18T12:58:11.160Z,50.63
2019-05-18T12:59:11.202Z,50.63
2019-05-18T13:00:11.235Z,50.63
2019-05-18T13:01:11.284Z,50.63
2019-05-18T13:02:11.316Z,50.63
2019-05-18T13:03:11.358Z,50.63